Time;durP1;ratioP1;P1;durP2;ratioP2;P2;SDS_P1;SDS_P2;PMS_P1;PMS_P2;Temp;Humidity;BMP_temperature;BMP_pressure;BME280_temperature;BME280_humidity;BME280_pressure;Samples;Min_cycle;Max_cycle;Signal;HPM_P1;HPM_P2
2022/07/09 00:00:44;;;;;;;22.45;7.20;;;;;;;;;;4980772;28;20057;-63
2022/07/09 00:03:11;;;;;;;17.83;7.25;;;;;;;;;;4979653;28;20054;-64
2022/07/09 00:05:37;;;;;;;17.77;5.85;;;;;;;;;;4983512;28;20035;-63
2022/07/09 00:08:03;;;;;;;13.48;6.00;;;;;;;;;;4983148;28;20049;-63
2022/07/09 00:10:30;;;;;;;17.60;5.93;;;;;;;;;;4982797;28;20517;-63
2022/07/09 00:12:56;;;;;;;21.65;7.00;;;;;;;;;;4980681;28;20446;-63
2022/07/09 00:15:24;;;;;;;18.95;6.80;;;;;;;;;;4982297;28;20543;-63
2022/07/09 00:17:50;;;;;;;14.73;5.55;;;;;;;;;;4964891;28;20175;-63
2022/07/09 00:20:16;;;;;;;14.00;5.70;;;;;;;;;;4980382;28;20055;-63
2022/07/09 00:22:43;;;;;;;14.07;6.07;;;;;;;;;;4980108;28;20049;-63
2022/07/09 00:25:09;;;;;;;15.15;6.15;;;;;;;;;;4980519;28;20046;-63
2022/07/09 00:27:35;;;;;;;17.30;6.72;;;;;;;;;;4980955;28;20042;-63
2022/07/09 00:30:02;;;;;;;12.98;5.70;;;;;;;;;;4981205;28;20394;-63
2022/07/09 00:32:28;;;;;;;18.08;7.00;;;;;;;;;;4981190;28;20043;-63
2022/07/09 00:34:54;;;;;;;14.82;5.63;;;;;;;;;;4983950;28;20086;-63
2022/07/09 00:37:20;;;;;;;11.82;5.22;;;;;;;;;;4982246;28;20049;-63
2022/07/09 00:39:46;;;;;;;14.73;6.07;;;;;;;;;;4978227;28;20062;-63
2022/07/09 00:42:13;;;;;;;18.08;7.10;;;;;;;;;;4964435;28;20510;-63
2022/07/09 00:44:39;;;;;;;18.30;6.43;;;;;;;;;;4984526;28;20128;-63
2022/07/09 00:47:06;;;;;;;16.58;6.22;;;;;;;;;;4976670;28;20395;-63
2022/07/09 00:49:35;;;;;;;10.85;6.20;;;;;;;;;;4979332;28;20036;-63
2022/07/09 00:52:02;;;;;;;14.88;5.47;;;;;;;;;;4982174;28;20050;-63
2022/07/09 00:54:28;;;;;;;12.75;5.70;;;;;;;;;;4980933;28;20603;-63
2022/07/09 00:56:54;;;;;;;14.85;5.55;;;;;;;;;;4982583;28;20173;-64
2022/07/09 00:59:21;;;;;;;14.05;6.03;;;;;;;;;;4980739;28;20034;-63
2022/07/09 01:01:47;;;;;;;13.75;5.95;;;;;;;;;;4980628;28;20050;-63
2022/07/09 01:04:13;;;;;;;14.75;5.38;;;;;;;;;;4980936;28;20057;-63
2022/07/09 01:06:39;;;;;;;12.70;5.18;;;;;;;;;;4984209;28;20054;-63
2022/07/09 01:09:07;;;;;;;13.75;5.20;;;;;;;;;;4984678;28;20456;-63
2022/07/09 01:11:33;;;;;;;13.57;5.03;;;;;;;;;;4983439;28;20585;-63
2022/07/09 01:13:59;;;;;;;11.00;4.75;;;;;;;;;;4983504;28;20117;-63
2022/07/09 01:16:33;;;;;;;17.45;7.20;;;;;;;;;;4967489;28;20125;-63
2022/07/09 01:18:59;;;;;;;13.43;5.00;;;;;;;;;;4984572;28;20054;-63
2022/07/09 01:21:25;;;;;;;11.48;5.38;;;;;;;;;;4984884;28;20096;-63
2022/07/09 01:23:51;;;;;;;13.32;4.90;;;;;;;;;;4984508;28;20056;-63
2022/07/09 01:26:21;;;;;;;11.50;4.82;;;;;;;;;;4984178;28;20374;-63
2022/07/09 01:28:47;;;;;;;16.10;5.97;;;;;;;;;;4965526;28;20049;-63
2022/07/09 01:31:14;;;;;;;13.43;4.68;;;;;;;;;;4967675;28;20046;-63
2022/07/09 01:33:40;;;;;;;12.65;5.03;;;;;;;;;;4983798;28;20068;-63
2022/07/09 01:36:07;;;;;;;13.23;5.32;;;;;;;;;;4982556;28;20164;-63
2022/07/09 01:38:34;;;;;;;9.20;4.68;;;;;;;;;;4982405;28;20049;-63
2022/07/09 01:41:00;;;;;;;14.07;4.60;;;;;;;;;;4978936;28;20050;-63
2022/07/09 01:43:26;;;;;;;9.82;4.82;;;;;;;;;;4983678;28;20082;-63
2022/07/09 01:45:52;;;;;;;12.23;4.60;;;;;;;;;;4960195;28;20539;-64
2022/07/09 01:48:18;;;;;;;12.07;4.45;;;;;;;;;;4980848;28;20053;-63
2022/07/09 01:50:45;;;;;;;9.88;4.15;;;;;;;;;;4980754;28;20042;-63
2022/07/09 01:53:12;;;;;;;12.88;4.10;;;;;;;;;;4978973;28;20050;-63
2022/07/09 01:55:38;;;;;;;14.43;3.42;;;;;;;;;;4978899;28;20042;-63
2022/07/09 01:58:05;;;;;;;13.18;4.68;;;;;;;;;;4959924;28;20061;-63
2022/07/09 02:00:31;;;;;;;17.40;4.78;;;;;;;;;;4982066;28;20122;-63
2022/07/09 02:02:57;;;;;;;9.15;4.32;;;;;;;;;;4963370;28;20054;-63
2022/07/09 02:05:23;;;;;;;8.20;4.30;;;;;;;;;;4981920;28;20034;-63
2022/07/09 02:07:50;;;;;;;7.28;3.67;;;;;;;;;;4984493;28;20101;-63
2022/07/09 02:10:16;;;;;;;10.38;3.80;;;;;;;;;;4985283;28;20050;-63
2022/07/09 02:12:42;;;;;;;11.10;4.15;;;;;;;;;;4968805;28;20070;-63
2022/07/09 02:15:10;;;;;;;12.43;4.63;;;;;;;;;;4984394;28;20050;-63
2022/07/09 02:17:37;;;;;;;11.43;4.25;;;;;;;;;;4993646;28;20042;-63
2022/07/09 02:20:03;;;;;;;12.18;5.40;;;;;;;;;;4985914;28;20482;-63
2022/07/09 02:22:29;;;;;;;14.20;5.30;;;;;;;;;;4984394;28;20073;-63
2022/07/09 02:24:55;;;;;;;10.98;5.35;;;;;;;;;;4984327;28;20039;-63
2022/07/09 02:27:22;;;;;;;12.57;5.53;;;;;;;;;;4982882;28;20046;-63
2022/07/09 02:29:48;;;;;;;11.07;4.80;;;;;;;;;;4984140;28;20042;-63
2022/07/09 02:32:14;;;;;;;14.82;5.03;;;;;;;;;;4983962;28;20125;-63
2022/07/09 02:34:40;;;;;;;11.73;4.55;;;;;;;;;;4981627;28;20179;-63
2022/07/09 02:37:07;;;;;;;11.95;5.15;;;;;;;;;;4990934;28;20056;-63
2022/07/09 02:39:33;;;;;;;10.10;4.88;;;;;;;;;;4983213;28;20081;-63
2022/07/09 02:41:59;;;;;;;9.40;4.78;;;;;;;;;;4981646;28;20046;-63
2022/07/09 02:44:26;;;;;;;10.77;4.90;;;;;;;;;;4965699;28;20046;-63
2022/07/09 02:46:52;;;;;;;11.48;4.90;;;;;;;;;;4984384;28;20047;-63
2022/07/09 02:49:18;;;;;;;15.15;5.00;;;;;;;;;;4984636;28;20046;-63
2022/07/09 02:51:44;;;;;;;10.35;4.85;;;;;;;;;;4966212;28;20046;-63
2022/07/09 02:54:10;;;;;;;13.32;5.55;;;;;;;;;;4980424;28;20407;-63
2022/07/09 02:56:37;;;;;;;11.63;5.32;;;;;;;;;;4982218;28;20055;-63
2022/07/09 02:59:03;;;;;;;10.43;4.82;;;;;;;;;;4985314;28;20478;-63
2022/07/09 03:01:29;;;;;;;11.32;4.63;;;;;;;;;;4981046;28;20511;-63
2022/07/09 03:03:55;;;;;;;16.17;4.57;;;;;;;;;;4964111;28;20111;-63
2022/07/09 03:06:22;;;;;;;12.68;4.32;;;;;;;;;;4990389;28;20046;-63
2022/07/09 03:08:49;;;;;;;9.85;3.85;;;;;;;;;;4965825;28;20505;-63
2022/07/09 03:11:15;;;;;;;12.25;4.60;;;;;;;;;;4984969;28;20054;-63
2022/07/09 03:13:41;;;;;;;11.45;4.90;;;;;;;;;;4980204;28;20103;-62
2022/07/09 03:16:07;;;;;;;13.00;4.50;;;;;;;;;;4985464;28;20049;-64
2022/07/09 03:18:33;;;;;;;10.55;4.30;;;;;;;;;;4983492;28;20054;-64
2022/07/09 03:21:00;;;;;;;7.90;4.20;;;;;;;;;;4981124;28;20390;-63
2022/07/09 03:23:26;;;;;;;11.30;4.60;;;;;;;;;;4978294;28;20039;-64
2022/07/09 03:25:52;;;;;;;8.57;4.28;;;;;;;;;;4980034;28;20110;-63
2022/07/09 03:28:19;;;;;;;11.80;4.40;;;;;;;;;;4987695;28;20054;-63
2022/07/09 03:30:45;;;;;;;11.90;5.43;;;;;;;;;;4980644;28;20042;-63
2022/07/09 03:33:11;;;;;;;8.93;5.18;;;;;;;;;;4982667;28;20287;-63
2022/07/09 03:35:39;;;;;;;13.13;4.82;;;;;;;;;;4983870;28;20042;-63
2022/07/09 03:38:05;;;;;;;14.30;4.80;;;;;;;;;;4984631;28;20058;-63
2022/07/09 03:40:31;;;;;;;11.55;4.80;;;;;;;;;;4991126;28;20073;-63
2022/07/09 03:42:58;;;;;;;9.93;4.45;;;;;;;;;;4981213;28;20057;-64
2022/07/09 03:45:24;;;;;;;13.05;5.70;;;;;;;;;;4977861;28;20091;-63
2022/07/09 03:47:50;;;;;;;11.25;4.63;;;;;;;;;;4964589;28;20092;-63
2022/07/09 03:50:17;;;;;;;9.95;5.15;;;;;;;;;;4979161;28;20087;-63
2022/07/09 03:52:43;;;;;;;13.63;4.75;;;;;;;;;;4987214;28;20054;-63
2022/07/09 03:55:09;;;;;;;13.32;4.95;;;;;;;;;;4987112;28;20050;-63
2022/07/09 03:57:36;;;;;;;11.05;4.38;;;;;;;;;;4982946;28;20100;-63
2022/07/09 04:00:02;;;;;;;9.75;4.47;;;;;;;;;;4968610;28;20050;-63
2022/07/09 04:02:28;;;;;;;10.90;4.50;;;;;;;;;;4965702;28;20519;-63
2022/07/09 04:04:56;;;;;;;9.32;4.85;;;;;;;;;;4965037;28;20089;-63
2022/07/09 04:07:23;;;;;;;9.57;3.97;;;;;;;;;;4977722;28;20133;-63
2022/07/09 04:09:49;;;;;;;11.93;4.90;;;;;;;;;;4964820;28;20435;-63
2022/07/09 04:12:15;;;;;;;14.52;4.35;;;;;;;;;;4982284;28;20052;-63
2022/07/09 04:14:41;;;;;;;13.07;4.20;;;;;;;;;;4975210;28;20045;-63
2022/07/09 04:17:07;;;;;;;12.93;4.88;;;;;;;;;;4985457;28;20046;-63
2022/07/09 04:19:34;;;;;;;10.20;4.10;;;;;;;;;;4981600;28;20050;-63
2022/07/09 04:22:02;;;;;;;7.85;3.80;;;;;;;;;;4982540;28;20133;-63
2022/07/09 04:24:28;;;;;;;13.13;4.07;;;;;;;;;;4964626;28;20076;-63
2022/07/09 04:26:55;;;;;;;10.02;3.90;;;;;;;;;;4979555;28;20047;-63
2022/07/09 04:29:21;;;;;;;13.20;4.45;;;;;;;;;;4980806;28;20349;-63
2022/07/09 04:31:47;;;;;;;11.48;4.30;;;;;;;;;;4977927;28;20123;-63
2022/07/09 04:34:13;;;;;;;13.38;4.30;;;;;;;;;;4978498;28;20063;-63
2022/07/09 04:36:39;;;;;;;7.40;4.05;;;;;;;;;;4979755;28;20056;-63
2022/07/09 04:39:05;;;;;;;11.35;4.07;;;;;;;;;;4959350;28;20050;-63
2022/07/09 04:41:32;;;;;;;9.07;4.57;;;;;;;;;;4984091;28;20093;-63
2022/07/09 04:43:58;;;;;;;9.40;4.13;;;;;;;;;;4979226;28;20401;-63
2022/07/09 04:46:26;;;;;;;8.50;4.55;;;;;;;;;;4973822;28;20123;-63
2022/07/09 04:48:53;;;;;;;11.48;4.60;;;;;;;;;;4962953;28;20057;-63
2022/07/09 04:51:19;;;;;;;11.70;4.13;;;;;;;;;;4982046;28;20088;-63
2022/07/09 04:53:45;;;;;;;11.60;4.47;;;;;;;;;;4979967;28;20049;-63
2022/07/09 04:56:11;;;;;;;8.75;4.30;;;;;;;;;;4981689;28;20187;-63
2022/07/09 04:58:37;;;;;;;9.27;4.10;;;;;;;;;;4981947;28;20073;-63
2022/07/09 05:01:04;;;;;;;11.10;4.18;;;;;;;;;;4981140;28;20061;-62
2022/07/09 05:03:31;;;;;;;7.72;3.78;;;;;;;;;;4982415;28;20047;-64
2022/07/09 05:05:58;;;;;;;8.65;4.45;;;;;;;;;;4987331;28;20058;-64
2022/07/09 05:08:25;;;;;;;12.38;3.88;;;;;;;;;;4968426;28;20050;-63
2022/07/09 05:10:51;;;;;;;9.82;4.25;;;;;;;;;;4985391;28;20112;-63
2022/07/09 05:13:17;;;;;;;8.88;4.20;;;;;;;;;;4983546;28;20486;-63
2022/07/09 05:15:43;;;;;;;11.88;4.57;;;;;;;;;;4984239;28;20518;-63
2022/07/09 05:18:09;;;;;;;8.60;3.95;;;;;;;;;;4963823;28;20050;-63
2022/07/09 05:20:36;;;;;;;9.82;3.42;;;;;;;;;;4984849;28;20042;-63
2022/07/09 05:23:02;;;;;;;10.32;4.18;;;;;;;;;;4964837;28;20046;-63
2022/07/09 05:25:28;;;;;;;9.57;3.65;;;;;;;;;;4987074;28;20042;-63
2022/07/09 05:27:54;;;;;;;12.07;4.22;;;;;;;;;;4985038;28;20046;-63
2022/07/09 05:30:21;;;;;;;9.98;4.00;;;;;;;;;;4984963;28;20050;-63
2022/07/09 05:32:47;;;;;;;13.30;4.07;;;;;;;;;;4988907;28;20042;-63
2022/07/09 05:35:13;;;;;;;10.43;4.05;;;;;;;;;;4982373;28;20125;-63
2022/07/09 05:37:41;;;;;;;12.30;3.60;;;;;;;;;;4986522;28;20578;-63
2022/07/09 05:40:07;;;;;;;7.38;2.83;;;;;;;;;;4981404;28;20088;-63
2022/07/09 05:42:33;;;;;;;11.18;3.65;;;;;;;;;;4983138;28;20050;-64
2022/07/09 05:45:00;;;;;;;7.97;3.58;;;;;;;;;;4976909;28;20087;-63
2022/07/09 05:47:26;;;;;;;8.30;2.92;;;;;;;;;;4979851;28;20046;-63
2022/07/09 05:49:52;;;;;;;11.23;3.25;;;;;;;;;;4967185;28;20041;-64
2022/07/09 05:52:18;;;;;;;7.25;2.90;;;;;;;;;;4981929;28;20068;-63
2022/07/09 05:54:45;;;;;;;10.82;3.60;;;;;;;;;;4979666;28;20079;-64
2022/07/09 05:57:11;;;;;;;8.73;3.22;;;;;;;;;;4985520;28;20048;-63
2022/07/09 05:59:37;;;;;;;9.75;3.50;;;;;;;;;;4982562;28;20046;-63
2022/07/09 06:02:05;;;;;;;12.40;3.08;;;;;;;;;;4991684;28;20069;-64
2022/07/09 06:04:31;;;;;;;7.60;2.90;;;;;;;;;;5004307;28;20050;-63
2022/07/09 06:06:57;;;;;;;11.23;2.78;;;;;;;;;;4978101;28;20122;-63
2022/07/09 06:09:24;;;;;;;5.20;2.58;;;;;;;;;;4984410;28;20043;-64
2022/07/09 06:11:50;;;;;;;11.65;2.60;;;;;;;;;;4982594;28;20399;-64
2022/07/09 06:14:16;;;;;;;8.57;2.97;;;;;;;;;;4983671;28;20041;-63
2022/07/09 06:16:44;;;;;;;8.27;3.40;;;;;;;;;;4968556;28;20058;-63
2022/07/09 06:19:10;;;;;;;6.53;2.60;;;;;;;;;;4967260;28;20050;-64
2022/07/09 06:21:36;;;;;;;9.65;2.72;;;;;;;;;;4983359;28;20073;-63
2022/07/09 06:24:02;;;;;;;13.13;2.92;;;;;;;;;;4987919;28;20054;-63
2022/07/09 06:26:30;;;;;;;8.90;2.58;;;;;;;;;;4994137;28;20086;-64
2022/07/09 06:28:56;;;;;;;8.40;3.03;;;;;;;;;;4993723;28;20050;-63
2022/07/09 06:31:23;;;;;;;6.30;2.40;;;;;;;;;;4985287;28;20081;-64
2022/07/09 06:33:49;;;;;;;12.60;2.42;;;;;;;;;;4988228;28;20499;-64
2022/07/09 06:36:15;;;;;;;11.50;3.28;;;;;;;;;;4982225;28;20065;-63
2022/07/09 06:41:26;;;;;;;9.85;2.97;;;;;;;;;;4974583;28;20376;-64
2022/07/09 06:43:53;;;;;;;9.48;2.72;;;;;;;;;;4977791;28;20059;-63
2022/07/09 06:46:19;;;;;;;9.38;2.50;;;;;;;;;;4976222;28;20054;-64
2022/07/09 06:48:45;;;;;;;11.63;2.80;;;;;;;;;;4979203;28;20125;-64
2022/07/09 06:51:11;;;;;;;11.25;2.70;;;;;;;;;;4979838;28;20047;-64
2022/07/09 06:53:37;;;;;;;8.10;2.80;;;;;;;;;;4962128;28;20080;-64
2022/07/09 06:56:04;;;;;;;7.85;2.15;;;;;;;;;;4979492;28;20038;-64
2022/07/09 06:58:30;;;;;;;10.13;2.63;;;;;;;;;;4984719;28;20476;-64
2022/07/09 07:00:56;;;;;;;11.60;2.78;;;;;;;;;;4983421;28;20076;-64
2022/07/09 07:03:22;;;;;;;13.73;2.40;;;;;;;;;;4982846;28;20102;-64
2022/07/09 07:05:49;;;;;;;11.25;2.95;;;;;;;;;;4981795;28;20081;-64
2022/07/09 07:08:15;;;;;;;16.08;2.88;;;;;;;;;;4984656;28;20121;-64
2022/07/09 07:10:41;;;;;;;12.70;2.55;;;;;;;;;;4983722;28;20111;-64
2022/07/09 07:13:07;;;;;;;10.23;2.80;;;;;;;;;;4983439;28;20046;-64
2022/07/09 07:15:33;;;;;;;11.48;2.55;;;;;;;;;;4981956;28;20093;-64
2022/07/09 07:17:59;;;;;;;12.90;2.67;;;;;;;;;;4983132;28;20050;-65
2022/07/09 07:20:26;;;;;;;14.27;3.03;;;;;;;;;;4981755;28;20502;-64
2022/07/09 07:22:52;;;;;;;13.43;2.67;;;;;;;;;;4979976;28;20057;-64
2022/07/09 07:25:18;;;;;;;11.15;2.53;;;;;;;;;;4982058;28;20129;-64
2022/07/09 07:27:44;;;;;;;11.02;2.55;;;;;;;;;;4981135;28;20053;-64
2022/07/09 07:30:11;;;;;;;13.02;2.50;;;;;;;;;;4982710;28;20038;-64
2022/07/09 07:32:37;;;;;;;15.02;2.72;;;;;;;;;;4981093;28;20046;-64
2022/07/09 07:35:03;;;;;;;10.85;2.08;;;;;;;;;;4983266;28;20069;-64
2022/07/09 07:37:31;;;;;;;10.85;3.08;;;;;;;;;;4980337;28;20567;-64
2022/07/09 07:39:57;;;;;;;12.60;2.20;;;;;;;;;;4982966;28;20077;-64
2022/07/09 07:42:24;;;;;;;17.58;3.30;;;;;;;;;;4980641;28;20054;-64
2022/07/09 07:44:50;;;;;;;12.07;2.03;;;;;;;;;;4982416;28;20049;-64
2022/07/09 07:47:16;;;;;;;8.90;1.90;;;;;;;;;;4983231;28;20121;-64
2022/07/09 07:49:42;;;;;;;12.23;1.95;;;;;;;;;;4981424;28;20149;-64
2022/07/09 07:52:08;;;;;;;11.85;2.10;;;;;;;;;;4988153;28;20247;-64
2022/07/09 07:54:35;;;;;;;15.00;2.10;;;;;;;;;;4978717;28;20119;-64
2022/07/09 07:57:02;;;;;;;12.23;2.83;;;;;;;;;;4981680;28;20269;-64
2022/07/09 07:59:28;;;;;;;10.95;2.13;;;;;;;;;;4980691;28;20088;-64
2022/07/09 08:01:54;;;;;;;10.55;1.95;;;;;;;;;;4983432;28;20099;-64
2022/07/09 08:04:20;;;;;;;10.48;2.08;;;;;;;;;;4981994;28;20486;-64
2022/07/09 08:06:47;;;;;;;13.85;2.92;;;;;;;;;;4965112;28;20042;-64
2022/07/09 08:09:13;;;;;;;9.15;2.08;;;;;;;;;;4963561;28;20061;-65
2022/07/09 08:11:39;;;;;;;8.48;2.25;;;;;;;;;;4984395;28;20187;-64
2022/07/09 08:14:06;;;;;;;12.77;2.42;;;;;;;;;;4980973;28;20440;-64
2022/07/09 08:16:33;;;;;;;7.72;2.00;;;;;;;;;;4983206;28;20094;-64
2022/07/09 08:18:59;;;;;;;9.02;2.05;;;;;;;;;;4980791;28;20051;-65
2022/07/09 08:21:25;;;;;;;6.78;2.13;;;;;;;;;;4981520;28;20045;-64
2022/07/09 08:23:51;;;;;;;15.27;2.22;;;;;;;;;;4979101;28;20496;-64
2022/07/09 08:26:19;;;;;;;10.52;2.53;;;;;;;;;;4961842;28;20490;-64
2022/07/09 08:28:45;;;;;;;9.43;1.85;;;;;;;;;;4982821;28;20050;-64
2022/07/09 08:31:12;;;;;;;8.80;2.67;;;;;;;;;;4982391;28;20248;-64
2022/07/09 08:33:38;;;;;;;10.77;2.00;;;;;;;;;;4961596;28;20490;-64
2022/07/09 08:36:04;;;;;;;7.72;1.92;;;;;;;;;;4978645;28;20039;-65
2022/07/09 08:38:31;;;;;;;8.18;1.77;;;;;;;;;;4980521;28;20049;-64
2022/07/09 08:40:59;;;;;;;9.13;1.65;;;;;;;;;;4970554;28;20141;-64
2022/07/09 08:43:27;;;;;;;9.82;2.10;;;;;;;;;;4981226;28;20990;-64
2022/07/09 08:45:54;;;;;;;12.48;2.10;;;;;;;;;;4978583;28;20138;-64
2022/07/09 08:48:20;;;;;;;13.40;2.55;;;;;;;;;;4980165;28;20466;-64
2022/07/09 08:50:48;;;;;;;12.65;2.90;;;;;;;;;;4980530;28;20053;-64
2022/07/09 08:53:17;;;;;;;9.05;2.08;;;;;;;;;;4980075;28;20054;-64
2022/07/09 08:55:43;;;;;;;7.53;2.03;;;;;;;;;;4983939;28;20042;-65
2022/07/09 08:58:11;;;;;;;7.45;1.90;;;;;;;;;;4981794;28;20050;-65
2022/07/09 09:00:38;;;;;;;8.23;1.88;;;;;;;;;;4978804;28;20038;-64
2022/07/09 09:03:04;;;;;;;7.03;1.52;;;;;;;;;;4981581;28;20115;-64
2022/07/09 09:05:30;;;;;;;9.32;1.70;;;;;;;;;;4963930;28;20141;-65
2022/07/09 09:07:56;;;;;;;14.80;2.10;;;;;;;;;;4976081;28;20053;-64
2022/07/09 09:10:23;;;;;;;4.90;1.42;;;;;;;;;;4978642;28;20050;-64
2022/07/09 09:12:49;;;;;;;9.30;2.42;;;;;;;;;;4947215;28;20054;-64
2022/07/09 09:15:22;;;;;;;11.07;2.28;;;;;;;;;;4978553;28;20046;-64
2022/07/09 09:17:48;;;;;;;12.05;2.13;;;;;;;;;;4980581;28;20428;-64
2022/07/09 09:20:15;;;;;;;11.00;2.25;;;;;;;;;;4980460;28;20494;-64
2022/07/09 09:22:46;;;;;;;12.88;2.63;;;;;;;;;;4979574;28;20050;-65
2022/07/09 09:25:16;;;;;;;11.50;2.78;;;;;;;;;;4979514;28;20107;-64
2022/07/09 09:27:50;;;;;;;10.48;2.20;;;;;;;;;;4981614;28;20394;-64
2022/07/09 09:30:16;;;;;;;12.75;2.50;;;;;;;;;;4978656;28;20038;-64
2022/07/09 09:32:42;;;;;;;10.82;2.17;;;;;;;;;;4980673;28;20167;-64
2022/07/09 09:35:08;;;;;;;13.32;2.28;;;;;;;;;;4979066;28;20038;-64
2022/07/09 09:37:34;;;;;;;9.38;2.15;;;;;;;;;;4961067;28;20043;-64
2022/07/09 09:40:09;;;;;;;11.90;2.28;;;;;;;;;;4979601;28;20070;-64
2022/07/09 09:42:37;;;;;;;9.65;2.03;;;;;;;;;;4982161;28;20050;-64
2022/07/09 09:45:03;;;;;;;8.90;2.42;;;;;;;;;;4982565;28;20599;-64
2022/07/09 09:47:30;;;;;;;10.93;2.45;;;;;;;;;;4969486;28;20668;-64
2022/07/09 09:49:57;;;;;;;9.98;1.80;;;;;;;;;;4960549;28;20054;-64
2022/07/09 09:52:24;;;;;;;8.50;1.92;;;;;;;;;;4984117;28;20053;-64
2022/07/09 09:54:51;;;;;;;9.95;2.10;;;;;;;;;;4986045;28;20057;-64
2022/07/09 09:57:18;;;;;;;14.52;2.78;;;;;;;;;;4980350;28;20043;-64
2022/07/09 09:59:45;;;;;;;11.68;2.47;;;;;;;;;;4980421;28;20042;-64
2022/07/09 10:02:12;;;;;;;13.75;2.05;;;;;;;;;;4977516;28;20061;-64
2022/07/09 10:04:39;;;;;;;9.20;2.60;;;;;;;;;;4980645;28;20107;-64
2022/07/09 10:07:06;;;;;;;10.20;2.28;;;;;;;;;;4977711;28;20041;-64
2022/07/09 10:09:32;;;;;;;8.82;2.10;;;;;;;;;;4977020;28;21863;-64
2022/07/09 10:11:59;;;;;;;11.27;3.28;;;;;;;;;;4979715;28;20050;-64
2022/07/09 10:14:25;;;;;;;10.07;2.15;;;;;;;;;;4977684;28;20047;-64
2022/07/09 10:16:52;;;;;;;9.77;2.55;;;;;;;;;;4979904;28;20144;-65
2022/07/09 10:19:24;;;;;;;11.60;2.10;;;;;;;;;;4979646;28;20083;-64
2022/07/09 10:21:52;;;;;;;11.98;1.88;;;;;;;;;;4981197;28;20494;-64
2022/07/09 10:24:24;;;;;;;6.85;2.10;;;;;;;;;;4977359;28;20050;-64
2022/07/09 10:26:50;;;;;;;9.05;1.80;;;;;;;;;;4963923;28;20046;-64
2022/07/09 10:29:20;;;;;;;10.98;1.90;;;;;;;;;;4983597;28;20175;-64
2022/07/09 10:31:47;;;;;;;11.98;2.20;;;;;;;;;;4981940;28;20050;-64
2022/07/09 10:34:24;;;;;;;10.20;1.98;;;;;;;;;;4983447;28;20386;-64
2022/07/09 10:36:57;;;;;;;8.88;1.95;;;;;;;;;;4982168;28;20045;-64
2022/07/09 10:39:24;;;;;;;7.65;1.83;;;;;;;;;;4982359;28;20065;-64
2022/07/09 10:42:00;;;;;;;9.50;1.35;;;;;;;;;;4982153;28;20127;-64
2022/07/09 10:44:27;;;;;;;10.63;1.98;;;;;;;;;;4981518;28;20050;-64
2022/07/09 10:46:56;;;;;;;8.52;1.65;;;;;;;;;;4989534;28;20052;-64
2022/07/09 10:49:23;;;;;;;6.88;1.45;;;;;;;;;;4987649;28;20038;-64
2022/07/09 10:51:49;;;;;;;9.48;1.75;;;;;;;;;;4982756;28;21484;-64
2022/07/09 10:54:16;;;;;;;10.00;1.73;;;;;;;;;;4983804;28;20049;-64
2022/07/09 10:56:43;;;;;;;8.70;1.70;;;;;;;;;;4987181;28;20042;-64
2022/07/09 10:59:10;;;;;;;7.07;1.60;;;;;;;;;;4987149;28;20506;-64
2022/07/09 11:01:36;;;;;;;5.75;1.33;;;;;;;;;;4974824;28;20042;-64
2022/07/09 11:04:02;;;;;;;9.25;1.45;;;;;;;;;;4986623;28;20042;-64
2022/07/09 11:06:29;;;;;;;8.13;1.35;;;;;;;;;;4987275;28;20388;-64
2022/07/09 11:08:55;;;;;;;7.68;1.60;;;;;;;;;;4988861;28;20042;-64
2022/07/09 11:11:24;;;;;;;10.63;2.00;;;;;;;;;;4966348;28;20057;-64
2022/07/09 11:13:53;;;;;;;9.63;1.40;;;;;;;;;;4980667;28;20047;-64
2022/07/09 11:16:26;;;;;;;6.30;1.40;;;;;;;;;;4980501;28;20115;-64
2022/07/09 11:18:53;;;;;;;6.43;1.35;;;;;;;;;;4980816;28;20117;-65
2022/07/09 11:21:24;;;;;;;7.78;1.50;;;;;;;;;;4981812;28;20046;-64
2022/07/09 11:23:50;;;;;;;6.82;1.40;;;;;;;;;;4982036;28;20103;-65
2022/07/09 11:26:16;;;;;;;7.43;1.55;;;;;;;;;;4982509;28;20138;-64
2022/07/09 11:28:45;;;;;;;5.90;1.50;;;;;;;;;;4965742;28;20050;-64
2022/07/09 11:31:12;;;;;;;6.45;1.40;;;;;;;;;;4984773;28;20051;-65
2022/07/09 11:36:23;;;;;;;6.57;1.45;;;;;;;;;;4985514;28;20379;-64
2022/07/09 11:38:50;;;;;;;6.05;1.15;;;;;;;;;;4985882;28;20074;-64
2022/07/09 11:41:16;;;;;;;4.90;1.30;;;;;;;;;;4985951;28;20042;-65
2022/07/09 11:43:47;;;;;;;4.93;1.40;;;;;;;;;;4982254;28;20043;-65
2022/07/09 11:46:16;;;;;;;5.22;1.17;;;;;;;;;;4982952;28;20057;-64
2022/07/09 11:48:56;;;;;;;7.53;1.83;;;;;;;;;;4980806;28;20114;-65
2022/07/09 11:51:32;;;;;;;9.68;1.70;;;;;;;;;;4982028;28;20057;-65
2022/07/09 11:53:59;;;;;;;4.72;1.38;;;;;;;;;;4979194;28;20038;-65
2022/07/09 11:56:25;;;;;;;5.78;1.38;;;;;;;;;;4982354;28;20052;-64
2022/07/09 11:58:51;;;;;;;6.45;1.20;;;;;;;;;;4981300;28;20054;-65
2022/07/09 12:01:17;;;;;;;6.43;1.35;;;;;;;;;;4979811;28;20052;-64
2022/07/09 12:03:48;;;;;;;6.20;1.17;;;;;;;;;;4980599;28;20173;-65
2022/07/09 12:06:14;;;;;;;5.47;1.10;;;;;;;;;;4980756;28;20058;-65
2022/07/09 12:08:40;;;;;;;5.82;1.13;;;;;;;;;;4981886;28;20065;-64
2022/07/09 12:11:07;;;;;;;6.40;0.95;;;;;;;;;;4988561;28;20061;-64
2022/07/09 12:13:34;;;;;;;8.23;1.23;;;;;;;;;;4981997;28;20073;-65
2022/07/09 12:16:00;;;;;;;7.13;1.50;;;;;;;;;;4963848;28;20525;-64
2022/07/09 12:18:27;;;;;;;8.50;1.52;;;;;;;;;;4979745;28;20133;-64
2022/07/09 12:20:53;;;;;;;7.93;1.70;;;;;;;;;;4979206;28;20050;-65
2022/07/09 12:23:20;;;;;;;5.72;1.30;;;;;;;;;;4978496;28;20051;-65
2022/07/09 12:25:46;;;;;;;6.53;1.30;;;;;;;;;;4979857;28;20046;-65
2022/07/09 12:28:12;;;;;;;7.03;1.70;;;;;;;;;;4983702;28;20046;-64
2022/07/09 12:30:39;;;;;;;6.22;1.10;;;;;;;;;;4984210;28;20704;-65
2022/07/09 12:33:05;;;;;;;8.77;1.65;;;;;;;;;;4986731;28;21689;-65
2022/07/09 12:35:31;;;;;;;4.47;1.08;;;;;;;;;;4984994;28;20034;-64
2022/07/09 12:37:57;;;;;;;7.57;1.85;;;;;;;;;;4986978;28;20042;-65
2022/07/09 12:40:24;;;;;;;7.35;1.55;;;;;;;;;;4979893;28;20058;-65
2022/07/09 12:42:50;;;;;;;6.55;1.10;;;;;;;;;;4983396;28;20054;-64
2022/07/09 12:45:16;;;;;;;5.05;1.30;;;;;;;;;;4978183;28;20049;-64
2022/07/09 12:47:42;;;;;;;6.93;1.50;;;;;;;;;;4979589;28;20138;-66
2022/07/09 12:50:09;;;;;;;5.10;1.23;;;;;;;;;;4978335;28;20104;-65
2022/07/09 12:52:35;;;;;;;8.95;1.25;;;;;;;;;;4975414;28;20186;-65
2022/07/09 12:55:02;;;;;;;5.60;1.08;;;;;;;;;;4981989;28;20042;-65
2022/07/09 12:57:29;;;;;;;11.75;1.33;;;;;;;;;;4977484;28;20111;-65
2022/07/09 12:59:55;;;;;;;6.25;1.42;;;;;;;;;;4977702;28;20498;-64
2022/07/09 13:02:21;;;;;;;4.65;1.17;;;;;;;;;;4976736;28;20073;-64
2022/07/09 13:04:47;;;;;;;6.72;1.30;;;;;;;;;;4980733;28;20487;-64
2022/07/09 13:07:13;;;;;;;6.50;1.30;;;;;;;;;;4981785;28;20386;-65
2022/07/09 13:09:40;;;;;;;6.22;1.35;;;;;;;;;;4980472;28;20166;-65
2022/07/09 13:12:06;;;;;;;6.30;1.55;;;;;;;;;;4977250;28;20058;-65
2022/07/09 13:14:32;;;;;;;7.43;1.27;;;;;;;;;;4960685;28;20513;-64
2022/07/09 13:16:59;;;;;;;6.55;1.30;;;;;;;;;;4979931;28;20081;-64
2022/07/09 13:19:25;;;;;;;8.55;1.58;;;;;;;;;;4976663;28;20352;-64
2022/07/09 13:21:51;;;;;;;6.85;1.42;;;;;;;;;;4977889;28;20090;-65
2022/07/09 13:24:17;;;;;;;8.65;1.80;;;;;;;;;;4978716;28;20435;-64
2022/07/09 13:26:44;;;;;;;10.75;1.65;;;;;;;;;;4979511;28;20042;-64
2022/07/09 13:29:10;;;;;;;11.30;2.25;;;;;;;;;;4979793;28;20611;-64
2022/07/09 13:31:36;;;;;;;13.23;1.80;;;;;;;;;;4979335;28;20109;-64
2022/07/09 13:34:02;;;;;;;11.38;1.60;;;;;;;;;;4961412;28;20058;-64
2022/07/09 13:36:29;;;;;;;10.65;1.65;;;;;;;;;;4964547;28;20152;-64
2022/07/09 13:38:55;;;;;;;7.95;1.70;;;;;;;;;;4979044;28;20124;-64
2022/07/09 13:41:22;;;;;;;9.38;1.70;;;;;;;;;;4979344;28;20138;-65
2022/07/09 13:43:48;;;;;;;8.30;1.67;;;;;;;;;;4978619;28;20078;-64
2022/07/09 13:46:14;;;;;;;9.38;1.85;;;;;;;;;;4979581;28;20043;-64
2022/07/09 13:48:40;;;;;;;9.45;1.85;;;;;;;;;;4980401;28;20069;-64
2022/07/09 13:51:06;;;;;;;13.38;2.10;;;;;;;;;;4980207;28;20119;-64
2022/07/09 13:53:33;;;;;;;8.00;1.98;;;;;;;;;;4961863;28;20091;-64
2022/07/09 13:55:59;;;;;;;11.10;2.22;;;;;;;;;;4984923;28;20068;-64
2022/07/09 13:58:25;;;;;;;10.52;2.13;;;;;;;;;;4984630;28;20114;-64
2022/07/09 14:00:51;;;;;;;13.07;1.73;;;;;;;;;;4967557;28;20053;-64
2022/07/09 14:03:18;;;;;;;6.80;1.60;;;;;;;;;;4981960;28;20050;-64
2022/07/09 14:05:44;;;;;;;10.10;1.92;;;;;;;;;;4982121;28;20131;-64
2022/07/09 14:08:10;;;;;;;9.82;2.38;;;;;;;;;;4984481;28;20054;-64
2022/07/09 14:10:36;;;;;;;8.75;1.77;;;;;;;;;;4984021;28;20501;-65
2022/07/09 14:13:04;;;;;;;8.98;1.77;;;;;;;;;;4981917;28;20625;-64
2022/07/09 14:15:31;;;;;;;4.35;1.05;;;;;;;;;;4981439;28;20043;-64
2022/07/09 14:17:57;;;;;;;5.65;1.35;;;;;;;;;;4989233;28;20049;-65
2022/07/09 14:20:24;;;;;;;4.57;1.13;;;;;;;;;;4983582;28;20046;-65
2022/07/09 14:22:50;;;;;;;5.35;1.33;;;;;;;;;;4981318;28;20466;-65
2022/07/09 14:25:16;;;;;;;8.45;1.60;;;;;;;;;;4982201;28;20452;-65
2022/07/09 14:27:43;;;;;;;3.63;0.95;;;;;;;;;;4964631;28;20426;-65
2022/07/09 14:30:09;;;;;;;4.35;1.20;;;;;;;;;;4986342;28;20126;-65
2022/07/09 14:32:35;;;;;;;4.95;0.95;;;;;;;;;;4989135;28;20103;-65
2022/07/09 14:35:01;;;;;;;6.00;1.02;;;;;;;;;;4971488;28;20042;-65
2022/07/09 14:37:28;;;;;;;4.75;1.00;;;;;;;;;;4985970;28;20512;-65